createdAt,value
2022-09-16T00:01:46.374Z,89.58
2022-09-16T00:04:18.511Z,90.03
2022-09-16T00:06:46.538Z,90.06
2022-09-16T00:09:18.059Z,90.42
2022-09-16T00:11:47.297Z,89.95
2022-09-16T00:14:15.415Z,90.15
2022-09-16T00:16:43.586Z,89.23
2022-09-16T00:19:13.283Z,89.72
2022-09-16T00:21:42.507Z,89.54
2022-09-16T00:24:13.490Z,89.77
2022-09-16T00:26:44.231Z,89.44
2022-09-16T00:29:12.499Z,89.69
2022-09-16T00:31:45.003Z,90.25
2022-09-16T00:34:14.099Z,90.16
2022-09-16T00:36:42.284Z,90.55
2022-09-16T00:39:14.329Z,90.02
2022-09-16T00:41:44.320Z,90.16
2022-09-16T00:44:46.748Z,90.87
2022-09-16T00:47:21.279Z,90.79
2022-09-16T00:49:53.255Z,91.02
2022-09-16T00:52:22.451Z,91.38
2022-09-16T00:54:51.266Z,91.41
2022-09-16T00:57:20.885Z,91.39
2022-09-16T00:59:55.480Z,91.58
2022-09-16T01:02:25.958Z,91.42
2022-09-16T01:04:58.728Z,91.19
2022-09-16T01:07:32.794Z,91.66
2022-09-16T01:10:00.935Z,91.39
2022-09-16T01:12:32.430Z,91.33
2022-09-16T01:15:01.735Z,90.61
2022-09-16T01:17:52.047Z,90.79
2022-09-16T01:20:46.660Z,90.89
2022-09-16T01:23:56.142Z,90.57
2022-09-16T01:26:48.387Z,90.72
2022-09-16T01:29:57.811Z,90.80
2022-09-16T01:32:32.236Z,90.87
2022-09-16T01:35:09.380Z,90.66
2022-09-16T01:37:48.545Z,90.87
2022-09-16T01:40:29.296Z,90.10
2022-09-16T01:43:10.031Z,89.15
2022-09-16T01:45:43.362Z,89.32
2022-09-16T01:48:19.711Z,90.37
2022-09-16T01:50:56.092Z,90.70
2022-09-16T01:53:33.773Z,90.11
2022-09-16T01:56:13.771Z,90.10
2022-09-16T01:58:50.352Z,89.89
2022-09-16T02:01:24.697Z,90.20
2022-09-16T02:04:00.019Z,89.89
2022-09-16T02:06:30.624Z,89.38
2022-09-16T02:09:04.278Z,87.75
2022-09-16T02:11:33.872Z,86.85
2022-09-16T02:14:07.575Z,88.78
2022-09-16T02:16:41.552Z,88.59
2022-09-16T02:19:23.960Z,88.58
2022-09-16T02:21:54.285Z,88.37
2022-09-16T02:24:25.479Z,88.69
2022-09-16T02:26:59.724Z,88.65
2022-09-16T02:29:34.564Z,88.45
2022-09-16T02:32:07.961Z,88.72
2022-09-16T02:34:41.146Z,88.62
2022-09-16T02:37:13.651Z,88.90
2022-09-16T02:39:51.550Z,89.09
2022-09-16T02:42:25.340Z,89.50
2022-09-16T02:44:53.557Z,89.82
2022-09-16T02:47:32.794Z,89.15
2022-09-16T02:50:14.340Z,88.96
2022-09-16T02:52:49.773Z,88.85
2022-09-16T02:55:27.487Z,89.92
2022-09-16T02:57:55.651Z,89.92
2022-09-16T03:00:34.859Z,89.24
2022-09-16T03:03:05.511Z,88.94
2022-09-16T03:06:01.643Z,88.78
2022-09-16T03:08:29.880Z,88.53
2022-09-16T03:11:09.881Z,89.12
2022-09-16T03:13:48.504Z,89.23
2022-09-16T03:16:24.810Z,88.86
2022-09-16T03:19:04.775Z,89.26
2022-09-16T03:21:42.678Z,89.30
2022-09-16T03:24:19.391Z,88.43
2022-09-16T03:26:58.750Z,89.19
2022-09-16T03:30:27.809Z,88.41
2022-09-16T03:33:04.726Z,89.90
2022-09-16T03:35:47.809Z,89.39
2022-09-16T03:42:42.959Z,88.99
2022-09-16T03:46:23.691Z,90.12
2022-09-16T03:48:52.119Z,87.74
2022-09-16T03:51:25.013Z,88.04
2022-09-16T03:53:59.878Z,88.37
2022-09-16T03:56:32.130Z,88.66
2022-09-16T03:59:07.788Z,88.14
2022-09-16T04:01:37.227Z,89.36
2022-09-16T04:04:07.307Z,89.53
2022-09-16T04:06:35.476Z,89.39
2022-09-16T04:09:04.518Z,89.99
2022-09-16T04:11:32.680Z,89.41
2022-09-16T04:14:00.907Z,89.14
2022-09-16T04:16:31.171Z,89.22
2022-09-16T04:18:59.214Z,89.58
2022-09-16T04:21:27.982Z,89.82
2022-09-16T04:23:56.389Z,89.21
2022-09-16T04:26:24.555Z,88.85
2022-09-16T04:28:54.338Z,88.82
2022-09-16T04:31:22.761Z,88.33
2022-09-16T04:33:52.302Z,86.37
2022-09-16T04:36:27.453Z,87.15
2022-09-16T04:38:57.750Z,87.25
2022-09-16T04:41:31.711Z,87.48
2022-09-16T04:44:01.388Z,87.52
2022-09-16T04:46:32.470Z,88.74
2022-09-16T04:49:03.791Z,88.37
2022-09-16T04:51:54.252Z,89.18
2022-09-16T04:54:22.542Z,87.99
2022-09-16T04:56:52.819Z,88.10
2022-09-16T04:59:23.340Z,88.10
2022-09-16T05:01:54.577Z,87.20
2022-09-16T05:04:33.530Z,87.05
2022-09-16T05:07:01.561Z,87.09
2022-09-16T05:09:37.688Z,86.63
2022-09-16T05:12:07.730Z,85.31
2022-09-16T05:14:38.474Z,85.82
2022-09-16T05:17:07.702Z,85.97
2022-09-16T05:19:39.578Z,86.42
2022-09-16T05:22:13.610Z,87.24
2022-09-16T05:24:44.660Z,86.10
2022-09-16T05:27:13.183Z,86.50
2022-09-16T05:29:42.357Z,87.40
2022-09-16T05:32:10.519Z,86.37
2022-09-16T05:34:46.525Z,86.68
2022-09-16T05:37:20.591Z,86.51
2022-09-16T05:39:50.801Z,86.41
2022-09-16T05:42:30.409Z,86.40
2022-09-16T05:45:02.020Z,86.33
2022-09-16T05:47:31.017Z,86.57
2022-09-16T05:50:02.468Z,86.65
2022-09-16T05:52:31.544Z,87.39
2022-09-16T05:55:49.485Z,87.43
2022-09-16T05:58:21.575Z,87.73
2022-09-16T06:00:49.716Z,87.41
2022-09-16T06:03:19.009Z,87.34
2022-09-16T06:05:49.428Z,87.63
2022-09-16T06:09:07.442Z,87.41
2022-09-16T06:12:27.572Z,87.59
2022-09-16T06:15:24.342Z,87.74
2022-09-16T06:17:52.569Z,87.14
2022-09-16T06:20:26.192Z,86.94
2022-09-16T06:23:05.044Z,86.68
2022-09-16T06:25:35.222Z,87.08
2022-09-16T06:28:03.828Z,86.93
2022-09-16T06:30:32.529Z,87.05
2022-09-16T06:33:06.433Z,86.47
2022-09-16T06:35:36.058Z,85.27
2022-09-16T06:38:05.488Z,84.74
2022-09-16T06:40:33.577Z,86.92
2022-09-16T06:43:01.622Z,85.13
2022-09-16T06:45:30.599Z,83.96
2022-09-16T06:48:01.653Z,83.48
2022-09-16T06:50:30.860Z,84.37
2022-09-16T06:52:59.944Z,85.11
2022-09-16T06:55:30.417Z,83.94
2022-09-16T06:57:59.750Z,83.57
2022-09-16T07:00:29.780Z,81.45
2022-09-16T07:02:57.923Z,82.93
2022-09-16T07:05:28.086Z,83.21
2022-09-16T07:07:56.303Z,82.05
2022-09-16T07:10:25.361Z,81.36
2022-09-16T07:12:54.940Z,80.22
2022-09-16T07:15:23.009Z,82.61
2022-09-16T07:17:55.101Z,81.26
2022-09-16T07:20:23.243Z,81.56
2022-09-16T07:22:54.248Z,80.86
2022-09-16T07:25:22.423Z,81.65
2022-09-16T07:27:50.460Z,80.79
2022-09-16T07:30:20.003Z,79.99
2022-09-16T07:32:48.843Z,78.14
2022-09-16T07:35:17.044Z,78.42
2022-09-16T07:37:45.119Z,78.52
2022-09-16T07:40:14.135Z,78.18
2022-09-16T07:42:42.648Z,77.69
2022-09-16T07:45:13.456Z,76.34
2022-09-16T07:47:42.912Z,77.09
2022-09-16T07:50:11.624Z,76.15
2022-09-16T07:52:39.747Z,76.38
2022-09-16T07:55:08.132Z,76.71
2022-09-16T07:57:36.208Z,76.27
2022-09-16T08:00:06.106Z,77.00
2022-09-16T08:02:39.561Z,77.13
2022-09-16T08:05:10.052Z,79.59
2022-09-16T08:07:38.316Z,78.60
2022-09-16T08:10:07.241Z,78.22
2022-09-16T08:12:35.782Z,77.20
2022-09-16T08:15:10.558Z,76.70
2022-09-16T08:17:41.643Z,76.49
2022-09-16T08:21:01.441Z,75.01
2022-09-16T08:23:34.432Z,76.50
2022-09-16T08:26:02.746Z,75.98
2022-09-16T08:28:40.156Z,75.40
2022-09-16T08:31:47.389Z,76.95
2022-09-16T08:34:41.122Z,76.58
2022-09-16T08:37:09.924Z,76.50
2022-09-16T08:40:28.400Z,76.69
2022-09-16T08:43:05.682Z,75.93
2022-09-16T08:45:43.360Z,75.45
2022-09-16T08:48:28.774Z,75.12
2022-09-16T08:51:01.399Z,74.18
2022-09-16T08:53:39.085Z,75.70
2022-09-16T08:56:15.006Z,74.85
2022-09-16T08:58:48.344Z,73.79
2022-09-16T09:01:22.549Z,75.04
2022-09-16T09:03:50.798Z,75.15
2022-09-16T09:06:46.939Z,74.52
2022-09-16T09:09:28.767Z,74.72
2022-09-16T09:12:07.908Z,73.34
2022-09-16T09:14:51.907Z,74.15
2022-09-16T09:17:31.498Z,75.71
2022-09-16T09:20:11.007Z,71.84
2022-09-16T09:23:07.007Z,71.18
2022-09-16T09:25:44.223Z,72.41
2022-09-16T09:28:27.305Z,71.23
2022-09-16T09:31:01.760Z,73.25
2022-09-16T09:33:46.659Z,71.86
2022-09-16T09:36:33.250Z,68.34
2022-09-16T09:39:14.797Z,70.25
2022-09-16T09:41:46.945Z,68.76
2022-09-16T09:44:41.426Z,69.20
2022-09-16T09:47:16.667Z,67.23
2022-09-16T09:49:48.192Z,68.19
2022-09-16T09:52:20.998Z,67.07
2022-09-16T09:54:52.206Z,67.46
2022-09-16T09:57:28.883Z,64.72
2022-09-16T10:00:04.538Z,68.52
2022-09-16T10:02:47.606Z,62.41
2022-09-16T10:05:31.146Z,65.67
2022-09-16T10:08:01.246Z,67.49
2022-09-16T10:10:34.408Z,66.99
2022-09-16T10:13:10.049Z,67.32
2022-09-16T10:15:40.970Z,67.49
2022-09-16T10:18:23.198Z,71.49
2022-09-16T10:20:59.551Z,63.89
2022-09-16T10:23:39.324Z,62.87
2022-09-16T10:26:23.285Z,66.58
2022-09-16T10:28:57.592Z,67.55
2022-09-16T10:31:34.284Z,67.33
2022-09-16T10:34:13.865Z,64.03
2022-09-16T10:36:42.132Z,66.35
2022-09-16T10:39:24.890Z,65.43
2022-09-16T10:41:53.515Z,64.48
2022-09-16T10:44:26.426Z,64.53
2022-09-16T10:46:56.977Z,65.38
2022-09-16T10:49:36.484Z,66.34
2022-09-16T10:52:17.581Z,67.55
2022-09-16T10:54:47.387Z,68.08
2022-09-16T10:57:24.414Z,66.73
2022-09-16T11:00:13.822Z,66.16
2022-09-16T11:03:14.946Z,64.17
2022-09-16T11:05:54.045Z,63.49
2022-09-16T11:08:39.311Z,61.74
2022-09-16T11:11:15.865Z,61.74
2022-09-16T11:13:51.415Z,59.73
2022-09-16T11:16:32.452Z,59.18
2022-09-16T11:19:08.458Z,60.11
2022-09-16T11:21:56.940Z,58.92
2022-09-16T11:24:43.571Z,59.63
2022-09-16T11:27:21.546Z,60.56
2022-09-16T11:30:02.098Z,60.51
2022-09-16T11:32:42.410Z,56.10
2022-09-16T11:35:34.953Z,55.93
2022-09-16T11:38:20.925Z,57.20
2022-09-16T11:40:55.882Z,57.90
2022-09-16T11:43:40.255Z,57.22
2022-09-16T11:46:16.219Z,58.83
2022-09-16T11:48:58.409Z,58.60
2022-09-16T11:51:43.128Z,56.46
2022-09-16T11:54:28.226Z,57.60
2022-09-16T11:56:59.697Z,58.22
2022-09-16T11:59:32.788Z,57.65
2022-09-16T12:02:05.519Z,59.76
2022-09-16T12:04:41.231Z,59.21
2022-09-16T12:07:17.082Z,58.96
2022-09-16T12:09:50.210Z,55.34
2022-09-16T12:12:21.615Z,60.08
2022-09-16T12:14:55.887Z,56.99
2022-09-16T12:17:28.159Z,58.56
2022-09-16T12:20:01.747Z,57.93
2022-09-16T12:22:32.980Z,56.32
2022-09-16T12:25:09.547Z,59.73
2022-09-16T12:27:45.010Z,57.87
2022-09-16T12:30:23.928Z,57.77
2022-09-16T12:33:02.663Z,56.25
2022-09-16T12:35:35.641Z,59.30
2022-09-16T12:38:04.063Z,60.30
2022-09-16T12:40:45.769Z,60.86
2022-09-16T12:43:31.678Z,59.73
2022-09-16T12:46:35.081Z,59.27
2022-09-16T12:49:42.540Z,60.62
2022-09-16T12:52:26.657Z,61.59
2022-09-16T12:55:32.400Z,59.57
2022-09-16T12:58:34.766Z,59.54
2022-09-16T13:01:27.031Z,59.94
2022-09-16T13:03:58.254Z,60.71
2022-09-16T13:06:29.723Z,59.85
2022-09-16T13:08:58.333Z,57.99
2022-09-16T13:14:24.380Z,58.00
2022-09-16T13:16:56.988Z,59.45
2022-09-16T13:19:46.799Z,59.33
2022-09-16T13:22:28.333Z,61.03
2022-09-16T13:25:06.829Z,61.12
2022-09-16T13:27:37.414Z,58.94
2022-09-16T13:30:31.392Z,59.82
2022-09-16T13:33:28.149Z,59.50
2022-09-16T13:36:33.064Z,59.46
2022-09-16T13:39:03.102Z,58.92
2022-09-16T13:41:34.368Z,59.28
2022-09-16T13:44:03.120Z,60.72
2022-09-16T13:46:43.550Z,62.16
2022-09-16T13:49:20.943Z,61.24
2022-09-16T13:51:51.246Z,63.35
2022-09-16T13:54:23.416Z,64.72
2022-09-16T13:57:10.851Z,66.44
2022-09-16T14:02:39.877Z,65.83
2022-09-16T14:05:23.981Z,66.48
2022-09-16T14:07:57.987Z,64.95
2022-09-16T14:10:36.550Z,65.34
2022-09-16T14:13:13.235Z,66.34
2022-09-16T14:15:45.345Z,67.23
2022-09-16T14:18:19.031Z,67.67
2022-09-16T14:21:01.325Z,68.55
2022-09-16T14:23:30.684Z,67.78
2022-09-16T14:26:00.333Z,69.05
2022-09-16T14:28:29.682Z,69.61
2022-09-16T14:30:59.797Z,69.76
2022-09-16T14:33:33.880Z,70.10
2022-09-16T14:36:09.856Z,70.34
2022-09-16T14:38:46.911Z,71.02
2022-09-16T14:41:24.642Z,71.46
2022-09-16T14:43:54.039Z,71.08
2022-09-16T14:46:22.324Z,71.84
2022-09-16T14:48:51.938Z,72.37
2022-09-16T14:51:24.554Z,73.19
2022-09-16T14:54:13.776Z,73.24
2022-09-16T14:56:42.287Z,72.73
2022-09-16T14:59:13.630Z,73.32
2022-09-16T15:01:45.306Z,73.36
2022-09-16T15:04:19.709Z,74.13
2022-09-16T15:06:54.049Z,73.94
2022-09-16T15:09:27.418Z,73.93
2022-09-16T15:11:59.030Z,73.89
2022-09-16T15:14:32.728Z,74.32
2022-09-16T15:17:06.611Z,74.53
2022-09-16T15:19:38.805Z,74.97
2022-09-16T15:22:11.933Z,74.53
2022-09-16T15:24:42.093Z,74.49
2022-09-16T15:27:11.211Z,74.65
2022-09-16T15:29:53.051Z,75.03
2022-09-16T15:32:24.240Z,75.21
2022-09-16T15:35:11.347Z,75.79
2022-09-16T15:37:40.055Z,75.41
2022-09-16T15:40:19.923Z,75.30
2022-09-16T15:42:49.343Z,74.76
2022-09-16T15:45:20.074Z,75.35
2022-09-16T15:47:57.415Z,74.95
2022-09-16T15:50:29.486Z,75.33
2022-09-16T15:53:03.463Z,75.82
2022-09-16T15:55:37.492Z,76.56
2022-09-16T15:58:10.974Z,76.69
2022-09-16T16:01:00.443Z,76.39
2022-09-16T16:03:33.034Z,76.48
2022-09-16T16:06:05.140Z,76.40
2022-09-16T16:08:46.281Z,76.40
2022-09-16T16:11:16.953Z,76.04
2022-09-16T16:13:45.252Z,76.14
2022-09-16T16:16:15.701Z,76.26
2022-09-16T16:18:45.701Z,76.89
2022-09-16T16:21:17.506Z,76.85
2022-09-16T16:23:45.725Z,76.20
2022-09-16T16:26:14.107Z,76.69
2022-09-16T16:28:48.392Z,76.74
2022-09-16T16:31:18.508Z,76.75
2022-09-16T16:33:47.855Z,77.84
2022-09-16T16:36:19.303Z,78.02
2022-09-16T16:38:48.376Z,77.08
2022-09-16T16:41:21.527Z,77.40
2022-09-16T16:43:49.984Z,77.31
2022-09-16T16:46:19.096Z,76.30
2022-09-16T16:48:47.605Z,76.66
2022-09-16T16:51:17.126Z,77.79
2022-09-16T16:53:49.043Z,76.35
2022-09-16T16:56:17.398Z,77.67
2022-09-16T16:58:45.831Z,76.93
2022-09-16T17:01:17.873Z,77.38
2022-09-16T17:03:49.793Z,77.60
2022-09-16T17:06:19.646Z,77.66
2022-09-16T17:08:47.812Z,77.69
2022-09-16T17:11:18.235Z,78.52
2022-09-16T17:13:49.703Z,78.55
2022-09-16T17:16:26.259Z,78.72
2022-09-16T17:18:56.965Z,78.25
2022-09-16T17:21:31.893Z,77.55
2022-09-16T17:24:05.649Z,78.16
2022-09-16T17:26:35.174Z,78.99
2022-09-16T17:29:13.309Z,79.50
2022-09-16T17:31:45.245Z,80.11
2022-09-16T17:34:15.727Z,80.27
2022-09-16T17:36:47.351Z,80.60
2022-09-16T17:39:17.987Z,81.12
2022-09-16T17:41:48.802Z,79.77
2022-09-16T17:44:18.031Z,79.97
2022-09-16T17:46:47.273Z,79.19
2022-09-16T17:49:17.583Z,78.43
2022-09-16T17:51:47.166Z,77.78
2022-09-16T17:54:15.690Z,79.40
2022-09-16T17:56:44.199Z,78.73
2022-09-16T17:59:15.003Z,79.39
2022-09-16T18:01:43.205Z,82.24
2022-09-16T18:04:11.494Z,81.96
2022-09-16T18:06:42.835Z,82.23
2022-09-16T18:09:13.255Z,83.25
2022-09-16T18:11:41.418Z,82.94
2022-09-16T18:14:12.587Z,82.53
2022-09-16T18:16:41.571Z,81.88
2022-09-16T18:19:09.996Z,80.91
2022-09-16T18:21:38.465Z,80.31
2022-09-16T18:24:11.189Z,80.20
2022-09-16T18:26:42.213Z,80.71
2022-09-16T18:29:12.151Z,80.69
2022-09-16T18:31:41.614Z,81.31
2022-09-16T18:34:09.948Z,81.69
2022-09-16T18:36:39.509Z,81.34
2022-09-16T18:39:09.252Z,81.73
2022-09-16T18:41:39.319Z,83.04
2022-09-16T18:44:14.554Z,82.15
2022-09-16T18:46:43.952Z,81.95
2022-09-16T18:49:14.459Z,83.72
2022-09-16T18:51:49.913Z,83.52
2022-09-16T18:54:24.985Z,82.79
2022-09-16T18:56:55.959Z,82.55
2022-09-16T18:59:28.500Z,82.90
2022-09-16T19:01:59.987Z,83.16
2022-09-16T19:04:30.477Z,83.39
2022-09-16T19:07:05.955Z,83.29
2022-09-16T19:09:35.836Z,83.27
2022-09-16T19:12:04.734Z,83.44
2022-09-16T19:14:34.257Z,83.91
2022-09-16T19:17:03.477Z,84.09
2022-09-16T19:19:32.032Z,84.17
2022-09-16T19:22:00.620Z,83.91
2022-09-16T19:24:31.520Z,83.42
2022-09-16T19:26:59.745Z,82.82
2022-09-16T19:29:27.951Z,83.12
2022-09-16T19:32:00.589Z,82.61
2022-09-16T19:34:29.104Z,83.88
2022-09-16T19:36:57.657Z,85.51
2022-09-16T19:39:27.183Z,85.96
2022-09-16T19:41:55.477Z,85.82
2022-09-16T19:44:23.701Z,85.75
2022-09-16T19:46:51.810Z,85.28
2022-09-16T19:49:23.145Z,85.40
2022-09-16T19:51:53.877Z,84.66
2022-09-16T19:54:24.279Z,84.34
2022-09-16T19:56:54.323Z,85.07
2022-09-16T19:59:32.745Z,85.65
2022-09-16T20:02:01.224Z,86.07
2022-09-16T20:04:33.231Z,86.29
2022-09-16T20:07:05.822Z,86.65
2022-09-16T20:09:34.023Z,86.46
2022-09-16T20:12:02.173Z,85.58
2022-09-16T20:14:34.080Z,86.27
2022-09-16T20:17:03.033Z,87.09
2022-09-16T20:19:36.071Z,87.99
2022-09-16T20:22:04.409Z,87.30
2022-09-16T20:24:32.695Z,86.38
2022-09-16T20:27:00.989Z,86.09
2022-09-16T20:29:33.069Z,86.50
2022-09-16T20:32:04.143Z,86.44
2022-09-16T20:34:33.789Z,86.13
2022-09-16T20:37:02.134Z,86.29
2022-09-16T20:39:30.596Z,85.40
2022-09-16T20:41:58.695Z,85.76
2022-09-16T20:44:27.059Z,85.64
2022-09-16T20:46:55.053Z,85.02
2022-09-16T20:49:24.777Z,85.51
2022-09-16T20:51:54.312Z,85.12
2022-09-16T20:54:22.355Z,85.34
2022-09-16T20:56:50.521Z,85.87
2022-09-16T20:59:20.157Z,85.05
2022-09-16T21:01:49.988Z,84.51
2022-09-16T21:04:19.995Z,84.53
2022-09-16T21:06:48.403Z,84.20
2022-09-16T21:09:19.312Z,84.32
2022-09-16T21:11:47.939Z,84.89
2022-09-16T21:14:18.133Z,84.03
2022-09-16T21:16:48.214Z,84.80
2022-09-16T21:19:17.948Z,84.58
2022-09-16T21:21:47.825Z,84.56
2022-09-16T21:24:17.603Z,84.41
2022-09-16T21:26:46.639Z,84.03
2022-09-16T21:29:17.707Z,84.03
2022-09-16T21:31:46.057Z,84.46
2022-09-16T21:34:16.233Z,84.69
2022-09-16T21:36:45.187Z,84.76
2022-09-16T21:39:14.096Z,84.99
2022-09-16T21:41:44.442Z,83.93
2022-09-16T21:44:13.228Z,84.34
2022-09-16T21:46:45.542Z,84.88
2022-09-16T21:49:21.052Z,84.78
2022-09-16T21:51:49.686Z,85.10
2022-09-16T21:54:20.448Z,84.93
2022-09-16T21:56:50.807Z,85.41
2022-09-16T21:59:20.471Z,84.95
2022-09-16T22:01:49.652Z,85.66
2022-09-16T22:04:21.528Z,86.43
2022-09-16T22:06:50.577Z,86.07
2022-09-16T22:09:18.675Z,85.83
2022-09-16T22:11:46.776Z,86.59
2022-09-16T22:14:16.293Z,85.23
2022-09-16T22:16:45.633Z,86.07
2022-09-16T22:19:15.934Z,86.13
2022-09-16T22:21:46.198Z,85.18
2022-09-16T22:24:16.359Z,85.43
2022-09-16T22:26:44.841Z,85.40
2022-09-16T22:29:16.585Z,85.87
2022-09-16T22:31:44.801Z,85.98
2022-09-16T22:34:13.284Z,85.80
2022-09-16T22:36:41.692Z,86.50
2022-09-16T22:39:13.592Z,86.30
2022-09-16T22:41:41.660Z,86.27
2022-09-16T22:44:09.758Z,86.42
2022-09-16T22:46:42.953Z,87.17
2022-09-16T22:49:11.694Z,87.43
2022-09-16T22:51:40.180Z,87.70
2022-09-16T22:54:09.038Z,88.25
2022-09-16T22:56:37.456Z,88.41
2022-09-16T22:59:08.488Z,89.04
2022-09-16T23:01:38.743Z,88.58
2022-09-16T23:04:10.624Z,89.46
2022-09-16T23:06:41.425Z,88.95
2022-09-16T23:09:13.359Z,88.64
2022-09-16T23:11:41.893Z,89.20
2022-09-16T23:14:13.979Z,89.34
2022-09-16T23:16:42.107Z,89.55
2022-09-16T23:19:12.845Z,88.61
2022-09-16T23:21:41.731Z,88.82
2022-09-16T23:24:15.162Z,89.57
2022-09-16T23:26:43.392Z,89.59
2022-09-16T23:29:13.148Z,89.82
2022-09-16T23:31:43.250Z,88.47
2022-09-16T23:34:18.907Z,88.70
2022-09-16T23:36:47.769Z,88.42
2022-09-16T23:39:18.809Z,88.13
2022-09-16T23:41:49.495Z,88.18
2022-09-16T23:44:18.131Z,87.95
2022-09-16T23:46:46.417Z,88.08
2022-09-16T23:49:17.226Z,87.73
2022-09-16T23:51:45.428Z,87.47
2022-09-16T23:54:14.073Z,88.38
2022-09-16T23:56:43.184Z,87.85
2022-09-16T23:59:11.401Z,87.17
